Bavaria

Go HERE for most recent data if this page is not up to date.

Jump to table bottom
Date Time Temp F RH % AVG Wind Max Wind Wind Dir 24 Snow Depth
*12/07/22 03 12.2 72 12 18 W - 256 0.2 44.8
*12/07/22 02 11.8 73 12 19 W - 263 0.2 44.8
*12/07/22 01 11.3 76 9 15 W - 270 0.2 44.8
*12/07/22 00 11.7 75 11 19 W - 292 0.2 44.8
*12/06/22 23 11.8 77 12 22 W - 266 0.2 44.8
*12/06/22 22 11.9 76 15 27 W - 257 0.2 45.0
*12/06/22 21 12.0 75 18 27 SW - 227 0.2 45.1
*12/06/22 20 12.2 74 25 34 W - 272 0.2 45.1
*12/06/22 19 12.8 71 18 33 W - 255 0.2 45.3
*12/06/22 18 13.5 69 13 22 NW - 327 0.2 45.3
*12/06/22 17 13.9 67 17 27 W - 257 0.2 45.4
*12/06/22 16 14.1 66 17 29 W - 275 0.2 45.4
*12/06/22 15 14.4 66 15 25 W - 272 0.2 45.5
*12/06/22 14 13.6 69 13 22 SW - 240 0.2 45.5
*12/06/22 13 12.1 76 13 22 W - 254 0.1 45.5
*12/06/22 12 11.9 79 11 18 W - 253 0.0 45.8
*12/06/22 11 12.0 79 11 20 W - 276 0.1 45.8
*12/06/22 10 10.8 81 14 21 SW - 247 0.2 45.9
*12/06/22 09 10.3 82 11 19 W - 261 0.2 46.0
*12/06/22 08 9.9 83 12 21 W - 292 0.2 46.1
*12/06/22 07 9.3 84 10 18 SW - 246 0.2 46.2
*12/06/22 06 9.5 84 16 28 SW - 238 0.2 46.3
*12/06/22 05 9.6 83 14 22 SW - 237 0.2 46.4
*12/06/22 04 9.6 83 15 27 W - 279 0.2 46.5
*12/06/22 03 9.5 82 21 30 W - 251 0.2 46.6
*12/06/22 02 9.3 83 22 33 SW - 239 0.2 46.3
*12/06/22 01 9.2 84 20 29 W - 261 0.2 46.3
*12/06/22 00 9.2 84 20 28 W - 250 0.2 46.2
.